Stena Germanica — SKPZ — position and weather

sailwx.info

Track history (hours):
 
Tides and Currents Weather Stations Pressure Air Temp Water Temp Dewpoint Dewpoint Depression Visibility Wind Speed Wind Dir Waves Ship Positions

Stena Germanica

Last reported at 2014-Aug-01 15:33 UTC. Time now 2014-Aug-01 15:58 UTC.
Position N 56°10' E 015°38'.

Length 176 m; draft 6.5 m.

Type: Passenger vessel. MMSI: 265292000.

Date/timePositionNaut miles runAvg speedWind from/ knotsBaromVisibWave heightAir tempDewpointWater temp
2014-Aug-01 15:33N 56°10' E 015°38'0 0.0
2014-Aug-01 14:33N 56°10' E 015°38'0 0.0
2014-Aug-01 13:33N 56°10' E 015°38'0 0.0
2014-Aug-01 12:33N 56°10' E 015°38'0 0.0
2014-Aug-01 11:33N 56°10' E 015°38'0 0.0
2014-Aug-01 10:33N 56°10' E 015°38'0 0.0
2014-Aug-01 09:33N 56°10' E 015°38'0 0.0
2014-Aug-01 08:33N 56°10' E 015°38'0 0.0
2014-Aug-01 07:33N 56°10' E 015°38'2 2.5
2014-Aug-01 06:34N 56°08' E 015°36'1414.0
2014-Aug-01 05:34N 55°57' E 015°52'6916.3
2014-Aug-01 01:18N 55°19' E 017°35'1215.8
2014-Aug-01 00:34N 55°13' E 017°52'1616.4
2014-Jul-31 23:33N 55°04' E 018°16'1615.7
2014-Jul-31 22:33N 54°54' E 018°38'1515.1
2014-Jul-31 21:34N 54°43' E 018°55'1312.9
2014-Jul-31 20:34N 54°32' E 018°44'8 7.7
2014-Jul-31 19:32N 54°33' E 018°30'0 0.0
2014-Jul-31 18:33N 54°33' E 018°30'6 6.0
2014-Jul-31 17:33N 54°32' E 018°40'1313.3
2014-Jul-31 16:34N 54°43' E 018°53'1818.2
2014-Jul-31 15:34N 54°57' E 018°33'1817.7
2014-Jul-31 14:34N 55°07' E 018°07'7917.8
2014-Jul-31 10:06N 55°51' E 016°10'1017.8
2014-Jul-31 09:33N 55°56' E 015°56'1615.6
2014-Jul-31 08:34N 56°06' E 015°34'5 4.4
2014-Jul-31 07:32N 56°10' E 015°38'0 0.0
2014-Jul-31 06:33N 56°10' E 015°38'1010.2
2014-Jul-31 05:33N 56°00' E 015°44'1515.4
2014-Jul-31 04:33N 55°52' E 016°07'4615.4
2014-Jul-31 01:33N 55°26' E 017°15'1515.3
2014-Jul-31 00:33N 55°18' E 017°37'1515.2
2014-Jul-30 23:33N 55°10' E 017°60'1515.2
2014-Jul-30 22:33N 55°02' E 018°22'1515.2
2014-Jul-30 21:33N 54°51' E 018°42'1514.9
2014-Jul-30 20:33N 54°40' E 018°57'1313.3
2014-Jul-30 19:33N 54°32' E 018°39'5 4.7
2014-Jul-30 18:32N 54°33' E 018°30'0 0.0
2014-Jul-30 17:33N 54°33' E 018°30'6 5.7
2014-Jul-30 16:33N 54°32' E 018°40'1413.6
2014-Jul-30 15:34N 54°44' E 018°52'1818.1
2014-Jul-30 14:34N 54°58' E 018°32'1817.7
2014-Jul-30 13:34N 55°08' E 018°06'1817.6
2014-Jul-30 12:33N 55°17' E 017°40'1817.7
2014-Jul-30 11:33N 55°27' E 017°14'1817.8
2014-Jul-30 10:33N 55°37' E 016°48'1817.8
2014-Jul-30 09:32N 55°47' E 016°21'1817.9
2014-Jul-30 08:33N 55°56' E 015°55'1515.1
2014-Jul-30 07:33N 56°06' E 015°35'4 3.8
2014-Jul-30 06:31N 56°10' E 015°38'0 0.0
2014-Jul-30 05:33N 56°10' E 015°38'1212.1
2014-Jul-30 04:33N 55°59' E 015°47'1717.4
2014-Jul-30 03:33N 55°51' E 016°15'1716.6
2014-Jul-30 02:33N 55°41' E 016°38'1717.0
2014-Jul-30 01:33N 55°31' E 017°03'1717.0
2014-Jul-30 00:33N 55°22' E 017°27'1717.1
2014-Jul-29 23:33N 55°12' E 017°52'1717.1
2014-Jul-29 22:33N 55°03' E 018°17'1717.0
2014-Jul-29 21:33N 54°52' E 018°40'1616.4
2014-Jul-29 20:33N 54°38' E 018°56'1313.4
2014-Jul-29 19:33N 54°32' E 018°35'3 2.9
2014-Jul-29 18:33N 54°33' E 018°30'0 0.0
2014-Jul-29 17:33N 54°33' E 018°30'6 6.1
2014-Jul-29 16:34N 54°32' E 018°41'1313.4
2014-Jul-29 15:34N 54°44' E 018°52'1818.1
2014-Jul-29 14:33N 54°58' E 018°31'1818.0
2014-Jul-29 13:34N 55°08' E 018°06'1818.1
2014-Jul-29 12:34N 55°18' E 017°39'1818.2
2014-Jul-29 11:34N 55°27' E 017°12'1818.1
2014-Jul-29 10:33N 55°37' E 016°44'1818.2
2014-Jul-29 09:34N 55°46' E 016°17'1716.9
2014-Jul-29 08:34N 55°57' E 015°53'1414.4
2014-Jul-29 07:33N 56°07' E 015°35'3 3.4
2014-Jul-29 06:33N 56°10' E 015°38'0 0.0
2014-Jul-29 05:33N 56°10' E 015°38'8 8.1
2014-Jul-29 04:33N 56°02' E 015°39'1414.5
2014-Jul-29 03:34N 55°54' E 016°01'1514.9
2014-Jul-29 02:34N 55°46' E 016°24'1514.9
2014-Jul-29 01:34N 55°37' E 016°45'1514.8
2014-Jul-29 00:34N 55°29' E 017°07'1514.7
2014-Jul-28 23:34N 55°21' E 017°29'1515.3
2014-Jul-28 22:34N 55°13' E 017°51'1515.3
2014-Jul-28 21:34N 55°05' E 018°14'1515.2
2014-Jul-28 20:34N 54°56' E 018°35'1515.0
2014-Jul-28 19:34N 54°45' E 018°53'1212.4
2014-Jul-28 18:34N 54°32' E 018°49'1110.9
2014-Jul-28 17:33N 54°33' E 018°30'0 0.1
2014-Jul-28 16:31N 54°33' E 018°30'0 0.0
2014-Jul-28 15:31N 54°33' E 018°30'0 0.0
2014-Jul-28 14:31N 54°33' E 018°30'0 0.0
2014-Jul-28 13:31N 54°33' E 018°30'0 0.0
2014-Jul-28 12:31N 54°33' E 018°30'0 0.0
2014-Jul-28 11:31N 54°33' E 018°30'0 0.0
2014-Jul-28 10:31N 54°33' E 018°30'0 0.0
2014-Jul-28 09:31N 54°33' E 018°30'0 0.0
2014-Jul-28 08:31N 54°33' E 018°30'0 0.0
2014-Jul-28 07:31N 54°33' E 018°30'1 0.8
2014-Jul-28 06:33N 54°32' E 018°32'1211.9
2014-Jul-28 05:33N 54°35' E 018°52'1413.6
2014-Jul-28 04:33N 54°48' E 018°47'1515.5
2014-Jul-28 03:33N 54°59' E 018°29'1615.6
2014-Jul-28 02:33N 55°08' E 018°06'1615.7
2014-Jul-28 01:33N 55°16' E 017°43'1715.7
2014-Jul-28 00:28N 55°26' E 017°17'1715.6
2014-Jul-27 23:24N 55°35' E 016°53'1815.7
2014-Jul-27 22:14N 55°45' E 016°26'1115.6
2014-Jul-27 21:33N 55°51' E 016°10'1615.7
2014-Jul-27 20:32N 55°59' E 015°46'1111.5
2014-Jul-27 19:33N 56°09' E 015°37'4 2.0
2014-Jul-27 17:23N 56°06' E 015°34'1616.3
2014-Jul-27 16:26N 55°56' E 015°56'1717.1
2014-Jul-27 15:28N 55°47' E 016°21'1617.2
2014-Jul-27 14:33N 55°38' E 016°44'1717.1
2014-Jul-27 13:34N 55°29' E 017°09'1717.1
2014-Jul-27 12:34N 55°19' E 017°34'1717.1
2014-Jul-27 11:34N 55°10' E 017°59'1717.3
2014-Jul-27 10:34N 55°01' E 018°25'1717.1
2014-Jul-27 09:34N 54°49' E 018°46'1514.6
2014-Jul-27 08:34N 54°34' E 018°52'1212.2
2014-Jul-27 07:33N 54°32' E 018°32'1 0.8
2014-Jul-27 06:32N 54°33' E 018°30'0 0.0
2014-Jul-27 05:33N 54°33' E 018°30'6 5.9
2014-Jul-27 04:34N 54°32' E 018°40'1313.3
2014-Jul-27 03:34N 54°43' E 018°53'1717.3
2014-Jul-27 02:34N 54°56' E 018°34'1717.2
2014-Jul-27 01:34N 55°07' E 018°10'1717.1
2014-Jul-27 00:34N 55°15' E 017°44'1717.2
2014-Jul-26 23:34N 55°24' E 017°18'1716.5
2014-Jul-26 22:33N 55°34' E 016°55'1717.4
2014-Jul-26 21:33N 55°44' E 016°29'1717.3
2014-Jul-26 20:34N 55°53' E 016°04'1716.5
2014-Jul-26 19:34N 56°02' E 015°39'8 7.8
2014-Jul-26 18:32N 56°10' E 015°38'0 0.0
2014-Jul-26 17:33N 56°10' E 015°38'9 8.7
2014-Jul-26 16:33N 56°02' E 015°41'1817.8
2014-Jul-26 15:33N 55°51' E 016°07'2017.8
2014-Jul-26 14:26N 55°40' E 016°36'1617.7
2014-Jul-26 13:33N 55°32' E 016°60'1817.8
2014-Jul-26 12:33N 55°22' E 017°26'1817.8
2014-Jul-26 11:33N 55°13' E 017°53'1817.8
2014-Jul-26 10:33N 55°03' E 018°19'1817.7
2014-Jul-26 09:33N 54°51' E 018°42'1616.2
2014-Jul-26 08:33N 54°37' E 018°55'1313.5
2014-Jul-26 07:33N 54°32' E 018°33'2 1.8
2014-Jul-26 06:31N 54°33' E 018°30'0 0.0
2014-Jul-26 05:32N 54°33' E 018°30'6 5.9
2014-Jul-26 04:34N 54°32' E 018°40'1212.4
2014-Jul-26 03:33N 54°41' E 018°56'1414.3
2014-Jul-26 02:33N 54°52' E 018°41'1414.3
2014-Jul-26 01:33N 55°01' E 018°22'1414.5
2014-Jul-26 00:33N 55°08' E 017°60'1414.5
2014-Jul-25 23:33N 55°16' E 017°39'1514.6
2014-Jul-25 22:33N 55°24' E 017°17'1514.7
2014-Jul-25 21:33N 55°31' E 016°54'1514.8
2014-Jul-25 20:33N 55°38' E 016°32'1414.5
2014-Jul-25 19:34N 55°46' E 016°09'1514.8
2014-Jul-25 18:33N 55°53' E 015°47'1413.7
2014-Jul-25 17:34N 56°05' E 015°34'6 5.4
2014-Jul-25 16:32N 56°10' E 015°38'0 0.0
2014-Jul-25 15:32N 56°10' E 015°38'0 0.0
2014-Jul-25 14:32N 56°10' E 015°38'0 0.0
2014-Jul-25 13:32N 56°10' E 015°38'0 0.0
2014-Jul-25 12:32N 56°10' E 015°38'0 0.0
2014-Jul-25 11:32N 56°10' E 015°38'0 0.0
2014-Jul-25 10:32N 56°10' E 015°38'0 0.0
2014-Jul-25 09:32N 56°10' E 015°38'0 0.0
2014-Jul-25 08:32N 56°10' E 015°38'0 0.0
2014-Jul-25 07:32N 56°10' E 015°38'4 4.0
2014-Jul-25 06:33N 56°06' E 015°35'1514.7
2014-Jul-25 05:33N 55°57' E 015°54'1615.8
2014-Jul-25 04:33N 55°47' E 016°16'1616.4
2014-Jul-25 03:33N 55°39' E 016°41'1615.9
2014-Jul-25 02:34N 55°31' E 017°06'1616.0
2014-Jul-25 01:33N 55°23' E 017°30'1515.5
2014-Jul-25 00:33N 55°13' E 017°51'1615.9
2014-Jul-24 23:33N 55°04' E 018°15'1616.1
2014-Jul-24 22:34N 54°55' E 018°37'1616.1
2014-Jul-24 21:33N 54°43' E 018°55'1313.0
2014-Jul-24 20:33N 54°32' E 018°43'8 7.5
2014-Jul-24 19:33N 54°33' E 018°30'0 0.0
2014-Jul-24 18:33N 54°33' E 018°30'7 7.2
2014-Jul-24 17:33N 54°32' E 018°43'1313.4
2014-Jul-24 16:33N 54°45' E 018°52'1817.8
2014-Jul-24 15:33N 54°58' E 018°32'1818.1
2014-Jul-24 14:33N 55°08' E 018°06'1818.0
2014-Jul-24 13:33N 55°18' E 017°39'1818.0
2014-Jul-24 12:33N 55°28' E 017°12'1817.7
2014-Jul-24 11:33N 55°37' E 016°46'1817.8
2014-Jul-24 10:33N 55°47' E 016°19'1817.8
2014-Jul-24 09:33N 55°57' E 015°53'1414.4
2014-Jul-24 08:33N 56°07' E 015°35'3 2.8
2014-Jul-24 07:31N 56°10' E 015°38'1 0.7
2014-Jul-24 06:33N 56°09' E 015°37'1111.3
2014-Jul-24 05:33N 55°59' E 015°47'1414.3
2014-Jul-24 04:33N 55°51' E 016°07'1514.9
2014-Jul-24 03:33N 55°43' E 016°29'1414.4
2014-Jul-24 02:34N 55°36' E 016°51'1414.3
2014-Jul-24 01:34N 55°27' E 017°12'1514.6
2014-Jul-24 00:34N 55°19' E 017°34'1514.9
2014-Jul-23 23:33N 55°11' E 017°56'1514.8
2014-Jul-23 22:33N 55°04' E 018°18'1615.5
2014-Jul-23 21:34N 54°54' E 018°39'1716.5
2014-Jul-23 20:33N 54°41' E 018°57'1313.3
2014-Jul-23 19:33N 54°32' E 018°41'6 6.2
2014-Jul-23 18:33N 54°33' E 018°30'0 0.0
2014-Jul-23 17:33N 54°33' E 018°30'6 6.1
2014-Jul-23 16:33N 54°32' E 018°41'1413.7
2014-Jul-23 15:34N 54°44' E 018°51'1818.3
2014-Jul-23 14:33N 54°59' E 018°31'1817.9
2014-Jul-23 13:33N 55°09' E 018°05'1817.9
2014-Jul-23 12:33N 55°18' E 017°38'1818.0
2014-Jul-23 11:33N 55°27' E 017°11'1817.8
2014-Jul-23 10:33N 55°37' E 016°44'2317.9
2014-Jul-23 09:18N 55°50' E 016°12'1317.6
2014-Jul-23 08:33N 55°57' E 015°53'1414.0
2014-Jul-23 07:33N 56°07' E 015°35'3 2.7
2014-Jul-23 06:31N 56°10' E 015°38'0 0.4
2014-Jul-23 05:34N 56°10' E 015°37'1312.6
2014-Jul-23 04:34N 55°59' E 015°48'1716.6
2014-Jul-23 03:33N 55°48' E 016°12'1716.8
2014-Jul-23 02:33N 55°40' E 016°37'1616.5
2014-Jul-23 01:34N 55°31' E 017°02'1716.6
2014-Jul-23 00:34N 55°23' E 017°27'1716.7
2014-Jul-22 23:33N 55°13' E 017°52'1716.8
2014-Jul-22 22:34N 55°04' E 018°16'1717.3
2014-Jul-22 21:33N 54°54' E 018°40'1717.5
2014-Jul-22 20:34N 54°39' E 018°57'1413.7
2014-Jul-22 19:33N 54°32' E 018°36'4 3.5
2014-Jul-22 18:33N 54°33' E 018°30'0 0.0
2014-Jul-22 17:33N 54°33' E 018°30'6 6.4
2014-Jul-22 16:33N 54°32' E 018°41'1313.4
2014-Jul-22 15:33N 54°44' E 018°52'  
Track history (hours):
 
Tides and Currents Weather Stations Pressure Air Temp Water Temp Dewpoint Dewpoint Depression Visibility Wind Speed Wind Dir Waves Ship Positions

Stena Germanica

Last reported at 2014-Aug-01 15:33 UTC. Time now 2014-Aug-01 15:58 UTC.
Position N 56°10' E 015°38'.

Length 176 m; draft 6.5 m.

Type: Passenger vessel. MMSI: 265292000.

Date/timePositionNaut miles runAvg speedWind from/ knotsBaromVisibWave heightAir tempDewpointWater temp
2014-Aug-01 15:33N 56°10' E 015°38'0 0.0
2014-Aug-01 14:33N 56°10' E 015°38'0 0.0
2014-Aug-01 13:33N 56°10' E 015°38'0 0.0
2014-Aug-01 12:33N 56°10' E 015°38'0 0.0
2014-Aug-01 11:33N 56°10' E 015°38'0 0.0
2014-Aug-01 10:33N 56°10' E 015°38'0 0.0
2014-Aug-01 09:33N 56°10' E 015°38'0 0.0
2014-Aug-01 08:33N 56°10' E 015°38'0 0.0
2014-Aug-01 07:33N 56°10' E 015°38'2 2.5
2014-Aug-01 06:34N 56°08' E 015°36'1414.0
2014-Aug-01 05:34N 55°57' E 015°52'6916.3
2014-Aug-01 01:18N 55°19' E 017°35'1215.8
2014-Aug-01 00:34N 55°13' E 017°52'1616.4
2014-Jul-31 23:33N 55°04' E 018°16'1615.7
2014-Jul-31 22:33N 54°54' E 018°38'1515.1
2014-Jul-31 21:34N 54°43' E 018°55'1312.9
2014-Jul-31 20:34N 54°32' E 018°44'8 7.7
2014-Jul-31 19:32N 54°33' E 018°30'0 0.0
2014-Jul-31 18:33N 54°33' E 018°30'6 6.0
2014-Jul-31 17:33N 54°32' E 018°40'1313.3
2014-Jul-31 16:34N 54°43' E 018°53'1818.2
2014-Jul-31 15:34N 54°57' E 018°33'1817.7
2014-Jul-31 14:34N 55°07' E 018°07'7917.8
2014-Jul-31 10:06N 55°51' E 016°10'1017.8
2014-Jul-31 09:33N 55°56' E 015°56'1615.6
2014-Jul-31 08:34N 56°06' E 015°34'5 4.4
2014-Jul-31 07:32N 56°10' E 015°38'0 0.0
2014-Jul-31 06:33N 56°10' E 015°38'1010.2
2014-Jul-31 05:33N 56°00' E 015°44'1515.4
2014-Jul-31 04:33N 55°52' E 016°07'4615.4
2014-Jul-31 01:33N 55°26' E 017°15'1515.3
2014-Jul-31 00:33N 55°18' E 017°37'1515.2
2014-Jul-30 23:33N 55°10' E 017°60'1515.2
2014-Jul-30 22:33N 55°02' E 018°22'1515.2
2014-Jul-30 21:33N 54°51' E 018°42'1514.9
2014-Jul-30 20:33N 54°40' E 018°57'1313.3
2014-Jul-30 19:33N 54°32' E 018°39'5 4.7
2014-Jul-30 18:32N 54°33' E 018°30'0 0.0
2014-Jul-30 17:33N 54°33' E 018°30'6 5.7
2014-Jul-30 16:33N 54°32' E 018°40'1413.6
2014-Jul-30 15:34N 54°44' E 018°52'1818.1
2014-Jul-30 14:34N 54°58' E 018°32'1817.7
2014-Jul-30 13:34N 55°08' E 018°06'1817.6
2014-Jul-30 12:33N 55°17' E 017°40'1817.7
2014-Jul-30 11:33N 55°27' E 017°14'1817.8
2014-Jul-30 10:33N 55°37' E 016°48'1817.8
2014-Jul-30 09:32N 55°47' E 016°21'1817.9
2014-Jul-30 08:33N 55°56' E 015°55'1515.1
2014-Jul-30 07:33N 56°06' E 015°35'4 3.8
2014-Jul-30 06:31N 56°10' E 015°38'0 0.0
2014-Jul-30 05:33N 56°10' E 015°38'1212.1
2014-Jul-30 04:33N 55°59' E 015°47'1717.4
2014-Jul-30 03:33N 55°51' E 016°15'1716.6
2014-Jul-30 02:33N 55°41' E 016°38'1717.0
2014-Jul-30 01:33N 55°31' E 017°03'1717.0
2014-Jul-30 00:33N 55°22' E 017°27'1717.1
2014-Jul-29 23:33N 55°12' E 017°52'1717.1
2014-Jul-29 22:33N 55°03' E 018°17'1717.0
2014-Jul-29 21:33N 54°52' E 018°40'1616.4
2014-Jul-29 20:33N 54°38' E 018°56'1313.4
2014-Jul-29 19:33N 54°32' E 018°35'3 2.9
2014-Jul-29 18:33N 54°33' E 018°30'0 0.0
2014-Jul-29 17:33N 54°33' E 018°30'6 6.1
2014-Jul-29 16:34N 54°32' E 018°41'1313.4
2014-Jul-29 15:34N 54°44' E 018°52'1818.1
2014-Jul-29 14:33N 54°58' E 018°31'1818.0
2014-Jul-29 13:34N 55°08' E 018°06'1818.1
2014-Jul-29 12:34N 55°18' E 017°39'1818.2
2014-Jul-29 11:34N 55°27' E 017°12'1818.1
2014-Jul-29 10:33N 55°37' E 016°44'1818.2
2014-Jul-29 09:34N 55°46' E 016°17'1716.9
2014-Jul-29 08:34N 55°57' E 015°53'1414.4
2014-Jul-29 07:33N 56°07' E 015°35'3 3.4
2014-Jul-29 06:33N 56°10' E 015°38'0 0.0
2014-Jul-29 05:33N 56°10' E 015°38'8 8.1
2014-Jul-29 04:33N 56°02' E 015°39'1414.5
2014-Jul-29 03:34N 55°54' E 016°01'1514.9
2014-Jul-29 02:34N 55°46' E 016°24'1514.9
2014-Jul-29 01:34N 55°37' E 016°45'1514.8
2014-Jul-29 00:34N 55°29' E 017°07'1514.7
2014-Jul-28 23:34N 55°21' E 017°29'1515.3
2014-Jul-28 22:34N 55°13' E 017°51'1515.3
2014-Jul-28 21:34N 55°05' E 018°14'1515.2
2014-Jul-28 20:34N 54°56' E 018°35'1515.0
2014-Jul-28 19:34N 54°45' E 018°53'1212.4
2014-Jul-28 18:34N 54°32' E 018°49'1110.9
2014-Jul-28 17:33N 54°33' E 018°30'0 0.1
2014-Jul-28 16:31N 54°33' E 018°30'0 0.0
2014-Jul-28 15:31N 54°33' E 018°30'0 0.0
2014-Jul-28 14:31N 54°33' E 018°30'0 0.0
2014-Jul-28 13:31N 54°33' E 018°30'0 0.0
2014-Jul-28 12:31N 54°33' E 018°30'0 0.0
2014-Jul-28 11:31N 54°33' E 018°30'0 0.0
2014-Jul-28 10:31N 54°33' E 018°30'0 0.0
2014-Jul-28 09:31N 54°33' E 018°30'0 0.0
2014-Jul-28 08:31N 54°33' E 018°30'0 0.0
2014-Jul-28 07:31N 54°33' E 018°30'1 0.8
2014-Jul-28 06:33N 54°32' E 018°32'1211.9
2014-Jul-28 05:33N 54°35' E 018°52'1413.6
2014-Jul-28 04:33N 54°48' E 018°47'1515.5
2014-Jul-28 03:33N 54°59' E 018°29'1615.6
2014-Jul-28 02:33N 55°08' E 018°06'1615.7
2014-Jul-28 01:33N 55°16' E 017°43'1715.7
2014-Jul-28 00:28N 55°26' E 017°17'1715.6
2014-Jul-27 23:24N 55°35' E 016°53'1815.7
2014-Jul-27 22:14N 55°45' E 016°26'1115.6
2014-Jul-27 21:33N 55°51' E 016°10'1615.7
2014-Jul-27 20:32N 55°59' E 015°46'1111.5
2014-Jul-27 19:33N 56°09' E 015°37'4 2.0
2014-Jul-27 17:23N 56°06' E 015°34'1616.3
2014-Jul-27 16:26N 55°56' E 015°56'1717.1
2014-Jul-27 15:28N 55°47' E 016°21'1617.2
2014-Jul-27 14:33N 55°38' E 016°44'1717.1
2014-Jul-27 13:34N 55°29' E 017°09'1717.1
2014-Jul-27 12:34N 55°19' E 017°34'1717.1
2014-Jul-27 11:34N 55°10' E 017°59'1717.3
2014-Jul-27 10:34N 55°01' E 018°25'1717.1
2014-Jul-27 09:34N 54°49' E 018°46'1514.6
2014-Jul-27 08:34N 54°34' E 018°52'1212.2
2014-Jul-27 07:33N 54°32' E 018°32'1 0.8
2014-Jul-27 06:32N 54°33' E 018°30'0 0.0
2014-Jul-27 05:33N 54°33' E 018°30'6 5.9
2014-Jul-27 04:34N 54°32' E 018°40'1313.3
2014-Jul-27 03:34N 54°43' E 018°53'1717.3
2014-Jul-27 02:34N 54°56' E 018°34'1717.2
2014-Jul-27 01:34N 55°07' E 018°10'1717.1
2014-Jul-27 00:34N 55°15' E 017°44'1717.2
2014-Jul-26 23:34N 55°24' E 017°18'1716.5
2014-Jul-26 22:33N 55°34' E 016°55'1717.4
2014-Jul-26 21:33N 55°44' E 016°29'1717.3
2014-Jul-26 20:34N 55°53' E 016°04'1716.5
2014-Jul-26 19:34N 56°02' E 015°39'8 7.8
2014-Jul-26 18:32N 56°10' E 015°38'0 0.0
2014-Jul-26 17:33N 56°10' E 015°38'9 8.7
2014-Jul-26 16:33N 56°02' E 015°41'1817.8
2014-Jul-26 15:33N 55°51' E 016°07'2017.8
2014-Jul-26 14:26N 55°40' E 016°36'1617.7
2014-Jul-26 13:33N 55°32' E 016°60'1817.8
2014-Jul-26 12:33N 55°22' E 017°26'1817.8
2014-Jul-26 11:33N 55°13' E 017°53'1817.8
2014-Jul-26 10:33N 55°03' E 018°19'1817.7
2014-Jul-26 09:33N 54°51' E 018°42'1616.2
2014-Jul-26 08:33N 54°37' E 018°55'1313.5
2014-Jul-26 07:33N 54°32' E 018°33'2 1.8
2014-Jul-26 06:31N 54°33' E 018°30'0 0.0
2014-Jul-26 05:32N 54°33' E 018°30'6 5.9
2014-Jul-26 04:34N 54°32' E 018°40'1212.4
2014-Jul-26 03:33N 54°41' E 018°56'1414.3
2014-Jul-26 02:33N 54°52' E 018°41'1414.3
2014-Jul-26 01:33N 55°01' E 018°22'1414.5
2014-Jul-26 00:33N 55°08' E 017°60'1414.5
2014-Jul-25 23:33N 55°16' E 017°39'1514.6
2014-Jul-25 22:33N 55°24' E 017°17'1514.7
2014-Jul-25 21:33N 55°31' E 016°54'1514.8
2014-Jul-25 20:33N 55°38' E 016°32'1414.5
2014-Jul-25 19:34N 55°46' E 016°09'1514.8
2014-Jul-25 18:33N 55°53' E 015°47'1413.7
2014-Jul-25 17:34N 56°05' E 015°34'6 5.4
2014-Jul-25 16:32N 56°10' E 015°38'0 0.0
2014-Jul-25 15:32N 56°10' E 015°38'0 0.0
2014-Jul-25 14:32N 56°10' E 015°38'0 0.0
2014-Jul-25 13:32N 56°10' E 015°38'0 0.0
2014-Jul-25 12:32N 56°10' E 015°38'0 0.0
2014-Jul-25 11:32N 56°10' E 015°38'0 0.0
2014-Jul-25 10:32N 56°10' E 015°38'0 0.0
2014-Jul-25 09:32N 56°10' E 015°38'0 0.0
2014-Jul-25 08:32N 56°10' E 015°38'0 0.0
2014-Jul-25 07:32N 56°10' E 015°38'4 4.0
2014-Jul-25 06:33N 56°06' E 015°35'1514.7
2014-Jul-25 05:33N 55°57' E 015°54'1615.8
2014-Jul-25 04:33N 55°47' E 016°16'1616.4
2014-Jul-25 03:33N 55°39' E 016°41'1615.9
2014-Jul-25 02:34N 55°31' E 017°06'1616.0
2014-Jul-25 01:33N 55°23' E 017°30'1515.5
2014-Jul-25 00:33N 55°13' E 017°51'1615.9
2014-Jul-24 23:33N 55°04' E 018°15'1616.1
2014-Jul-24 22:34N 54°55' E 018°37'1616.1
2014-Jul-24 21:33N 54°43' E 018°55'1313.0
2014-Jul-24 20:33N 54°32' E 018°43'8 7.5
2014-Jul-24 19:33N 54°33' E 018°30'0 0.0
2014-Jul-24 18:33N 54°33' E 018°30'7 7.2
2014-Jul-24 17:33N 54°32' E 018°43'1313.4
2014-Jul-24 16:33N 54°45' E 018°52'1817.8
2014-Jul-24 15:33N 54°58' E 018°32'1818.1
2014-Jul-24 14:33N 55°08' E 018°06'1818.0
2014-Jul-24 13:33N 55°18' E 017°39'1818.0
2014-Jul-24 12:33N 55°28' E 017°12'1817.7
2014-Jul-24 11:33N 55°37' E 016°46'1817.8
2014-Jul-24 10:33N 55°47' E 016°19'1817.8
2014-Jul-24 09:33N 55°57' E 015°53'1414.4
2014-Jul-24 08:33N 56°07' E 015°35'3 2.8
2014-Jul-24 07:31N 56°10' E 015°38'1 0.7
2014-Jul-24 06:33N 56°09' E 015°37'1111.3
2014-Jul-24 05:33N 55°59' E 015°47'1414.3
2014-Jul-24 04:33N 55°51' E 016°07'1514.9
2014-Jul-24 03:33N 55°43' E 016°29'1414.4
2014-Jul-24 02:34N 55°36' E 016°51'1414.3
2014-Jul-24 01:34N 55°27' E 017°12'1514.6
2014-Jul-24 00:34N 55°19' E 017°34'1514.9
2014-Jul-23 23:33N 55°11' E 017°56'1514.8
2014-Jul-23 22:33N 55°04' E 018°18'1615.5
2014-Jul-23 21:34N 54°54' E 018°39'1716.5
2014-Jul-23 20:33N 54°41' E 018°57'1313.3
2014-Jul-23 19:33N 54°32' E 018°41'6 6.2
2014-Jul-23 18:33N 54°33' E 018°30'0 0.0
2014-Jul-23 17:33N 54°33' E 018°30'6 6.1
2014-Jul-23 16:33N 54°32' E 018°41'1413.7
2014-Jul-23 15:34N 54°44' E 018°51'1818.3
2014-Jul-23 14:33N 54°59' E 018°31'1817.9
2014-Jul-23 13:33N 55°09' E 018°05'1817.9
2014-Jul-23 12:33N 55°18' E 017°38'1818.0
2014-Jul-23 11:33N 55°27' E 017°11'1817.8
2014-Jul-23 10:33N 55°37' E 016°44'2317.9
2014-Jul-23 09:18N 55°50' E 016°12'1317.6
2014-Jul-23 08:33N 55°57' E 015°53'1414.0
2014-Jul-23 07:33N 56°07' E 015°35'3 2.7
2014-Jul-23 06:31N 56°10' E 015°38'0 0.4
2014-Jul-23 05:34N 56°10' E 015°37'1312.6
2014-Jul-23 04:34N 55°59' E 015°48'1716.6
2014-Jul-23 03:33N 55°48' E 016°12'1716.8
2014-Jul-23 02:33N 55°40' E 016°37'1616.5
2014-Jul-23 01:34N 55°31' E 017°02'1716.6
2014-Jul-23 00:34N 55°23' E 017°27'1716.7
2014-Jul-22 23:33N 55°13' E 017°52'1716.8
2014-Jul-22 22:34N 55°04' E 018°16'1717.3
2014-Jul-22 21:33N 54°54' E 018°40'1717.5
2014-Jul-22 20:34N 54°39' E 018°57'1413.7
2014-Jul-22 19:33N 54°32' E 018°36'4 3.5
2014-Jul-22 18:33N 54°33' E 018°30'0 0.0
2014-Jul-22 17:33N 54°33' E 018°30'6 6.4
2014-Jul-22 16:33N 54°32' E 018°41'1313.4
2014-Jul-22 15:33N 54°44' E 018°52'  

Dump ship's entire track history